Waterloo Regional Airport
KALO : now visible

Airfield :











YOU CAN JOIN US ON...

 
LOGIN :

Register | Disclaimer

   EN    FR    IT 

 









Legend :    VFR   Marginal VFR   IFR   Intensive IFR   Very Intensive IFR
Visi :
Ceiling :
>= 8 km
>= 3000ft
5 to 8 km
1000 to 3000 ft
1500m to 5 km
500 to 1000 ft
800 to 1500m
200 to 500 ft
< 800m
< 200 ft
Symbols :   Thunderstorms  Fog  Heavy snow  Heavy precipitations  Wind > 20 kt






- Airport Elevation : 873 ft
- IATA code : ALO


KALO - Waterloo Regional

CURRENT METAR :
  • 161554Z 00000KT 10SM FEW019 24/17 A3008 RMK AO2 SLP183 T02390172

EXPIRED METARs :
  • 161541Z 22005KT 10SM SCT017 23/16 A3008 RMK AO2 T02280161
  • 161515Z 24005KT 10SM BKN015 23/17 A3008 RMK AO2 T02280167
  • 161454Z 10SM BKN010 BKN013 21/17 A3008 RMK AO2 CIG 007V012 SLP183 T02110167 53009
  • 161450Z 22006KT 10SM SCT008 BKN013 22/17 A3008 RMK AO2
  • 161354Z 10SM OVC008 19/17 A3005 RMK AO2 SLP173 T01940167

TAF KALO
Valid from the 16 at 15:00 until the 17 at 12:00 UTC


161506Z 1615/1712 VRB03KT P6SM SCT008 BKN015
FM161600 VRB03KT P6SM SCT250
FM161700 18005KT P6SM SCT250
KZAU FIR / North America



MET'MAP, your aeronautical weather chart ! - Copyright ORBIFLY December 2007 - Disclaimer

ORBIFLY MET'MAP TEAM :

Programming & Development : Alexandra Zaïnal
Concept & original design : Baudouin d'Aumeries
Assistance for programming : Marc-Olivier Méhu
Technical & hardware support : Manuel Goepfert

Contact : metmap@orbifly.com




SOURCES & CREDITS :

   NOAA       Earth
Advisory